createdAt,value
2018-08-11T00:00:29.841Z,11.14
2018-08-11T00:01:29.823Z,11.17
2018-08-11T00:02:29.830Z,11.18
2018-08-11T00:03:29.750Z,11.21
2018-08-11T00:04:29.745Z,11.21
2018-08-11T00:05:29.705Z,11.22
2018-08-11T00:06:29.779Z,11.27
2018-08-11T00:07:29.750Z,11.27
2018-08-11T00:08:29.830Z,11.35
2018-08-11T00:09:29.748Z,11.49
2018-08-11T00:10:29.773Z,11.53
2018-08-11T00:11:29.779Z,11.53
2018-08-11T00:12:29.849Z,11.51
2018-08-11T00:13:29.787Z,11.57
2018-08-11T00:14:29.787Z,11.56
2018-08-11T00:15:29.853Z,11.50
2018-08-11T00:16:29.797Z,11.46
2018-08-11T00:17:29.853Z,11.49
2018-08-11T00:18:29.852Z,11.47
2018-08-11T00:19:29.855Z,11.47
2018-08-11T00:20:29.786Z,11.45
2018-08-11T00:21:29.751Z,11.47
2018-08-11T00:22:29.846Z,11.45
2018-08-11T00:23:29.751Z,11.42
2018-08-11T00:24:29.758Z,11.47
2018-08-11T00:25:29.764Z,11.49
2018-08-11T00:26:29.809Z,11.47
2018-08-11T00:27:29.758Z,11.49
2018-08-11T00:28:29.765Z,11.49
2018-08-11T00:29:29.763Z,11.47
2018-08-11T00:30:29.763Z,11.64
2018-08-11T00:31:29.797Z,11.79
2018-08-11T00:32:29.866Z,11.79
2018-08-11T00:33:29.797Z,11.83
2018-08-11T00:34:29.867Z,11.87
2018-08-11T00:35:29.792Z,11.86
2018-08-11T00:36:29.881Z,11.89
2018-08-11T00:37:29.795Z,11.99
2018-08-11T00:38:29.867Z,12.05
2018-08-11T00:39:29.798Z,12.08
2018-08-11T00:40:29.876Z,12.06
2018-08-11T00:41:29.827Z,12.06
2018-08-11T00:42:29.830Z,12.03
2018-08-11T00:43:29.756Z,12.01
2018-08-11T00:44:29.740Z,11.98
2018-08-11T00:45:29.820Z,11.95
2018-08-11T00:46:29.835Z,11.91
2018-08-11T00:47:29.802Z,11.89
2018-08-11T00:48:29.740Z,11.83
2018-08-11T00:49:29.836Z,11.75
2018-08-11T00:50:29.805Z,11.72
2018-08-11T00:51:29.806Z,11.67
2018-08-11T00:52:29.877Z,11.62
2018-08-11T00:53:29.812Z,11.60
2018-08-11T00:54:29.833Z,11.60
2018-08-11T00:55:29.808Z,11.57
2018-08-11T00:56:29.881Z,11.54
2018-08-11T00:57:29.910Z,11.54
2018-08-11T00:58:29.810Z,11.49
2018-08-11T00:59:29.884Z,11.43
2018-08-11T01:00:29.857Z,11.39
2018-08-11T01:01:29.814Z,11.33
2018-08-11T01:02:29.979Z,11.31
2018-08-11T01:03:29.815Z,11.28
2018-08-11T01:04:29.894Z,11.20
2018-08-11T01:05:29.817Z,11.11
2018-08-11T01:06:29.888Z,11.07
2018-08-11T01:07:29.823Z,11.00
2018-08-11T01:08:29.890Z,10.98
2018-08-11T01:09:29.825Z,10.95
2018-08-11T01:10:29.896Z,10.91
2018-08-11T01:11:29.749Z,10.87
2018-08-11T01:12:29.860Z,10.86
2018-08-11T01:13:29.827Z,10.84
2018-08-11T01:14:29.878Z,10.75
2018-08-11T01:15:29.866Z,10.69
2018-08-11T01:16:29.843Z,10.63
2018-08-11T01:17:29.861Z,10.60
2018-08-11T01:18:29.762Z,10.54
2018-08-11T01:19:29.863Z,10.49
2018-08-11T01:20:29.797Z,10.47
2018-08-11T01:21:29.898Z,10.46
2018-08-11T01:22:29.828Z,10.46
2018-08-11T01:23:29.899Z,10.46
2018-08-11T01:24:29.832Z,10.45
2018-08-11T01:25:29.901Z,10.46
2018-08-11T01:26:29.857Z,10.47
2018-08-11T01:27:29.837Z,10.49
2018-08-11T01:28:29.904Z,10.45
2018-08-11T01:29:29.834Z,10.47
2018-08-11T01:30:29.831Z,10.49
2018-08-11T01:31:29.906Z,10.57
2018-08-11T01:32:29.922Z,10.61
2018-08-11T01:33:29.906Z,10.63
2018-08-11T01:34:29.838Z,10.64
2018-08-11T01:35:29.873Z,10.67
2018-08-11T01:36:29.839Z,10.69
2018-08-11T01:37:29.918Z,10.77
2018-08-11T01:38:29.841Z,10.80
2018-08-11T01:39:29.922Z,10.75
2018-08-11T01:40:29.843Z,10.72
2018-08-11T01:41:29.859Z,10.71
2018-08-11T01:42:29.871Z,10.68
2018-08-11T01:43:29.822Z,10.64
2018-08-11T01:44:29.899Z,10.63
2018-08-11T01:45:29.946Z,10.58
2018-08-11T01:46:29.894Z,10.54
2018-08-11T01:47:29.843Z,10.52
2018-08-11T01:48:29.945Z,10.45
2018-08-11T01:49:29.868Z,10.45
2018-08-11T01:50:29.845Z,10.47
2018-08-11T01:51:29.889Z,10.52
2018-08-11T01:52:29.980Z,10.53
2018-08-11T01:53:29.821Z,10.77
2018-08-11T01:54:29.868Z,10.90
2018-08-11T01:55:29.914Z,10.95
2018-08-11T01:56:29.888Z,11.03
2018-08-11T01:57:29.907Z,11.13
2018-08-11T01:58:29.870Z,11.24
2018-08-11T01:59:29.911Z,11.27
2018-08-11T02:00:29.789Z,11.24
2018-08-11T02:01:29.928Z,11.25
2018-08-11T02:02:29.857Z,11.29
2018-08-11T02:03:29.930Z,11.33
2018-08-11T02:04:29.928Z,11.38
2018-08-11T02:05:29.857Z,11.39
2018-08-11T02:06:29.933Z,11.46
2018-08-11T02:07:29.862Z,11.51
2018-08-11T02:08:29.933Z,11.53
2018-08-11T02:09:29.864Z,11.57
2018-08-11T02:10:29.933Z,11.64
2018-08-11T02:11:29.869Z,11.65
2018-08-11T02:12:29.935Z,11.71
2018-08-11T02:13:29.863Z,11.76
2018-08-11T02:14:29.939Z,11.79
2018-08-11T02:15:29.867Z,11.84
2018-08-11T02:16:29.868Z,11.94
2018-08-11T02:17:29.868Z,11.97
2018-08-11T02:18:29.940Z,12.01
2018-08-11T02:19:29.937Z,12.05
2018-08-11T02:20:29.870Z,12.08
2018-08-11T02:21:29.940Z,12.08
2018-08-11T02:22:29.870Z,12.06
2018-08-11T02:23:29.945Z,12.06
2018-08-11T02:24:29.869Z,12.05
2018-08-11T02:25:29.945Z,12.10
2018-08-11T02:26:29.872Z,12.13
2018-08-11T02:27:29.945Z,12.13
2018-08-11T02:28:29.877Z,12.12
2018-08-11T02:29:29.825Z,12.14
2018-08-11T02:30:29.878Z,12.14
2018-08-11T02:31:29.880Z,12.12
2018-08-11T02:32:29.919Z,12.12
2018-08-11T02:33:29.881Z,12.08
2018-08-11T02:34:30.038Z,12.05
2018-08-11T02:35:29.955Z,12.03
2018-08-11T02:36:29.963Z,12.01
2018-08-11T02:37:29.894Z,11.98
2018-08-11T02:38:29.886Z,11.95
2018-08-11T02:39:29.953Z,11.91
2018-08-11T02:40:29.879Z,11.87
2018-08-11T02:41:29.956Z,11.87
2018-08-11T02:42:29.958Z,11.86
2018-08-11T02:43:29.886Z,11.89
2018-08-11T02:44:29.956Z,11.91
2018-08-11T02:45:29.885Z,11.89
2018-08-11T02:46:29.916Z,11.89
2018-08-11T02:47:29.960Z,11.87
2018-08-11T02:48:29.962Z,11.89
2018-08-11T02:49:29.887Z,11.89
2018-08-11T02:50:29.897Z,11.91
2018-08-11T02:51:29.961Z,11.91
2018-08-11T02:52:29.899Z,11.92
2018-08-11T02:53:29.965Z,12.02
2018-08-11T02:54:29.889Z,12.09
2018-08-11T02:55:29.963Z,12.14
2018-08-11T02:56:29.894Z,12.21
2018-08-11T02:57:29.966Z,12.28
2018-08-11T02:58:29.897Z,12.43
2018-08-11T02:59:29.898Z,12.54
2018-08-11T03:00:29.971Z,12.66
2018-08-11T03:01:29.852Z,12.72
2018-08-11T03:02:29.913Z,12.76
2018-08-11T03:03:29.867Z,12.79
2018-08-11T03:04:29.880Z,12.86
2018-08-11T03:05:29.863Z,12.92
2018-08-11T03:06:29.920Z,12.99
2018-08-11T03:07:29.834Z,13.07
2018-08-11T03:08:29.938Z,13.14
2018-08-11T03:09:29.925Z,13.17
2018-08-11T03:10:29.858Z,13.21
2018-08-11T03:11:29.937Z,13.25
2018-08-11T03:12:29.824Z,13.27
2018-08-11T03:13:29.918Z,13.28
2018-08-11T03:14:29.923Z,13.28
2018-08-11T03:15:29.994Z,13.27
2018-08-11T03:16:29.830Z,13.24
2018-08-11T03:17:29.882Z,13.23
2018-08-11T03:18:29.993Z,13.21
2018-08-11T03:19:29.920Z,13.18
2018-08-11T03:20:29.952Z,13.17
2018-08-11T03:21:29.877Z,13.14
2018-08-11T03:22:29.910Z,13.13
2018-08-11T03:23:29.983Z,13.10
2018-08-11T03:24:29.914Z,13.09
2018-08-11T03:25:29.986Z,13.09
2018-08-11T03:26:29.918Z,13.09
2018-08-11T03:27:29.986Z,13.06
2018-08-11T03:28:29.987Z,13.07
2018-08-11T03:29:29.919Z,13.07
2018-08-11T03:30:29.989Z,13.06
2018-08-11T03:31:29.984Z,13.07
2018-08-11T03:32:29.936Z,13.06
2018-08-11T03:33:29.854Z,13.06
2018-08-11T03:34:29.961Z,13.06
2018-08-11T03:35:29.958Z,13.07
2018-08-11T03:36:29.940Z,13.07
2018-08-11T03:37:29.893Z,13.07
2018-08-11T03:38:29.964Z,13.09
2018-08-11T03:39:29.982Z,13.07
2018-08-11T03:40:29.855Z,13.06
2018-08-11T03:41:29.921Z,13.03
2018-08-11T03:42:30.003Z,13.02
2018-08-11T03:43:29.954Z,12.99
2018-08-11T03:44:29.998Z,12.98
2018-08-11T03:45:29.924Z,12.94
2018-08-11T03:46:30.002Z,12.92
2018-08-11T03:47:29.931Z,12.89
2018-08-11T03:48:30.028Z,12.91
2018-08-11T03:49:29.931Z,12.87
2018-08-11T03:50:30.006Z,12.89
2018-08-11T03:51:29.929Z,12.86
2018-08-11T03:52:29.891Z,12.86
2018-08-11T03:53:29.975Z,12.83
2018-08-11T03:54:29.910Z,12.83
2018-08-11T03:55:29.879Z,12.84
2018-08-11T03:56:30.001Z,12.84
2018-08-11T03:57:29.906Z,12.86
2018-08-11T03:58:29.976Z,12.87
2018-08-11T03:59:29.874Z,12.89
2018-08-11T04:00:29.917Z,12.91
2018-08-11T04:01:29.908Z,12.92
2018-08-11T04:02:29.976Z,12.96
2018-08-11T04:03:29.911Z,12.98
2018-08-11T04:04:29.908Z,13.00
2018-08-11T04:05:29.943Z,13.03
2018-08-11T04:06:30.014Z,13.03
2018-08-11T04:07:29.915Z,13.03
2018-08-11T04:08:29.948Z,13.05
2018-08-11T04:09:29.964Z,13.07
2018-08-11T04:10:29.927Z,13.09
2018-08-11T04:11:29.964Z,13.09
2018-08-11T04:12:29.978Z,13.12
2018-08-11T04:13:29.999Z,13.13
2018-08-11T04:14:29.885Z,13.17
2018-08-11T04:15:29.954Z,13.20
2018-08-11T04:16:29.977Z,13.20
2018-08-11T04:17:29.971Z,13.21
2018-08-11T04:18:29.930Z,13.21
2018-08-11T04:19:29.915Z,13.21
2018-08-11T04:20:29.888Z,13.23
2018-08-11T04:21:29.879Z,13.24
2018-08-11T04:22:29.925Z,13.28
2018-08-11T04:23:29.998Z,13.29
2018-08-11T04:24:29.932Z,13.28
2018-08-11T04:25:30.018Z,13.31
2018-08-11T04:26:30.012Z,13.36
2018-08-11T04:27:29.932Z,13.40
2018-08-11T04:28:29.990Z,13.43
2018-08-11T04:29:30.015Z,13.49
2018-08-11T04:30:30.000Z,13.54
2018-08-11T04:31:29.999Z,13.59
2018-08-11T04:32:29.964Z,13.62
2018-08-11T04:33:30.036Z,13.65
2018-08-11T04:34:29.967Z,13.65
2018-08-11T04:35:30.038Z,13.66
2018-08-11T04:36:29.926Z,13.70
2018-08-11T04:37:29.967Z,13.73
2018-08-11T04:38:30.037Z,13.75
2018-08-11T04:39:29.968Z,13.75
2018-08-11T04:40:30.039Z,13.76
2018-08-11T04:41:29.968Z,13.77
2018-08-11T04:42:29.941Z,13.80
2018-08-11T04:43:29.906Z,13.83
2018-08-11T04:44:29.989Z,13.80
2018-08-11T04:45:29.945Z,13.70
2018-08-11T04:46:30.027Z,13.61
2018-08-11T04:47:29.967Z,13.56
2018-08-11T04:48:30.027Z,13.49
2018-08-11T04:49:30.038Z,13.42
2018-08-11T04:50:29.946Z,13.32
2018-08-11T04:51:29.987Z,13.25
2018-08-11T04:52:29.978Z,13.14
2018-08-11T04:53:30.042Z,13.03
2018-08-11T04:54:29.998Z,12.92
2018-08-11T04:55:30.047Z,12.86
2018-08-11T04:56:29.978Z,12.80
2018-08-11T04:57:30.050Z,12.76
2018-08-11T04:58:29.974Z,12.72
2018-08-11T04:59:30.049Z,12.69
2018-08-11T05:00:29.990Z,12.65
2018-08-11T05:01:30.056Z,12.64
2018-08-11T05:02:29.979Z,12.62
2018-08-11T05:03:30.052Z,12.64
2018-08-11T05:04:29.983Z,12.65
2018-08-11T05:05:29.982Z,12.65
2018-08-11T05:06:30.053Z,12.64
2018-08-11T05:07:29.980Z,12.62
2018-08-11T05:08:30.055Z,12.62
2018-08-11T05:09:29.987Z,12.60
2018-08-11T05:10:30.064Z,12.60
2018-08-11T05:11:29.988Z,12.60
2018-08-11T05:12:30.060Z,12.60
2018-08-11T05:13:29.989Z,12.61
2018-08-11T05:14:29.989Z,12.61
2018-08-11T05:15:30.064Z,12.60
2018-08-11T05:16:29.990Z,12.60
2018-08-11T05:17:29.993Z,12.58
2018-08-11T05:18:29.992Z,12.58
2018-08-11T05:19:30.065Z,12.55
2018-08-11T05:20:29.995Z,12.54
2018-08-11T05:21:29.992Z,12.53
2018-08-11T05:22:29.994Z,12.51
2018-08-11T05:23:29.955Z,12.50
2018-08-11T05:24:30.011Z,12.48
2018-08-11T05:25:29.929Z,12.48
2018-08-11T05:26:29.996Z,12.46
2018-08-11T05:27:30.033Z,12.44
2018-08-11T05:28:29.990Z,12.43
2018-08-11T05:29:29.998Z,12.43
2018-08-11T05:30:30.040Z,12.44
2018-08-11T05:31:29.949Z,12.46
2018-08-11T05:32:30.001Z,12.46
2018-08-11T05:33:30.076Z,12.46
2018-08-11T05:34:29.994Z,12.46
2018-08-11T05:35:30.093Z,12.46
2018-08-11T05:36:30.006Z,12.46
2018-08-11T05:37:30.072Z,12.47
2018-08-11T05:38:30.000Z,12.46
2018-08-11T05:39:30.073Z,12.47
2018-08-11T05:40:30.074Z,12.47
2018-08-11T05:41:30.052Z,12.51
2018-08-11T05:42:30.032Z,12.53
2018-08-11T05:43:30.090Z,12.53
2018-08-11T05:44:29.934Z,12.51
2018-08-11T05:45:30.022Z,12.48
2018-08-11T05:46:29.974Z,12.48
2018-08-11T05:47:29.930Z,12.47
2018-08-11T05:48:29.977Z,12.47
2018-08-11T05:49:29.917Z,12.47
2018-08-11T05:50:30.027Z,12.43
2018-08-11T05:51:30.081Z,12.42
2018-08-11T05:52:29.970Z,12.40
2018-08-11T05:53:29.949Z,12.40
2018-08-11T05:54:29.987Z,12.40
2018-08-11T05:55:29.985Z,12.39
2018-08-11T05:56:30.036Z,12.40
2018-08-11T05:57:30.074Z,12.48
2018-08-11T05:58:29.950Z,12.64
2018-08-11T05:59:30.028Z,12.87
2018-08-11T06:00:29.974Z,13.12
2018-08-11T06:01:30.038Z,13.39
2018-08-11T06:02:30.022Z,13.64
2018-08-11T06:03:30.091Z,13.95
2018-08-11T06:04:30.021Z,14.07
2018-08-11T06:05:30.090Z,14.25
2018-08-11T06:06:30.020Z,14.39
2018-08-11T06:07:30.093Z,14.44
2018-08-11T06:08:30.030Z,14.46
2018-08-11T06:09:30.095Z,14.49
2018-08-11T06:10:30.110Z,14.44
2018-08-11T06:11:30.095Z,14.60
2018-08-11T06:12:30.032Z,14.80
2018-08-11T06:13:30.100Z,14.86
2018-08-11T06:14:30.027Z,14.94
2018-08-11T06:15:30.106Z,15.06
2018-08-11T06:16:30.032Z,15.19
2018-08-11T06:17:30.104Z,15.37
2018-08-11T06:18:30.038Z,15.48
2018-08-11T06:19:30.105Z,15.64
2018-08-11T06:20:30.031Z,15.83
2018-08-11T06:21:30.109Z,16.03
2018-08-11T06:22:30.035Z,16.27
2018-08-11T06:23:30.110Z,16.44
2018-08-11T06:24:30.039Z,16.68
2018-08-11T06:25:30.111Z,16.85
2018-08-11T06:26:30.045Z,17.02
2018-08-11T06:27:30.113Z,17.10
2018-08-11T06:28:30.046Z,17.26
2018-08-11T06:29:30.116Z,17.31
2018-08-11T06:30:30.079Z,17.39
2018-08-11T06:31:30.143Z,17.51
2018-08-11T06:32:29.938Z,17.49
2018-08-11T06:33:29.961Z,17.49
2018-08-11T06:34:30.054Z,17.57
2018-08-11T06:35:30.004Z,17.69
2018-08-11T06:36:29.969Z,17.83
2018-08-11T06:37:30.062Z,17.89
2018-08-11T06:38:30.011Z,17.91
2018-08-11T06:39:30.063Z,18.02
2018-08-11T06:40:30.151Z,18.13
2018-08-11T06:41:30.062Z,18.20
2018-08-11T06:42:30.050Z,18.31
2018-08-11T06:43:30.172Z,18.36
2018-08-11T06:44:30.052Z,18.34
2018-08-11T06:45:30.046Z,18.21
2018-08-11T06:46:30.170Z,18.16
2018-08-11T06:47:30.054Z,18.06
2018-08-11T06:48:30.131Z,17.95
2018-08-11T06:49:30.052Z,17.88
2018-08-11T06:50:30.126Z,17.84
2018-08-11T06:51:30.057Z,17.84
2018-08-11T06:52:30.123Z,17.87
2018-08-11T06:53:30.054Z,17.76
2018-08-11T06:54:30.128Z,17.72
2018-08-11T06:55:30.065Z,17.83
2018-08-11T06:56:30.335Z,17.76
2018-08-11T06:57:30.134Z,17.71
2018-08-11T06:58:30.131Z,17.57
2018-08-11T06:59:30.065Z,17.43
2018-08-11T07:00:30.136Z,17.31
2018-08-11T07:01:30.073Z,17.31
2018-08-11T07:02:30.133Z,17.31
2018-08-11T07:03:30.069Z,17.25
2018-08-11T07:04:30.135Z,17.05
2018-08-11T07:05:30.068Z,16.91
2018-08-11T07:06:30.139Z,17.01
2018-08-11T07:07:30.066Z,17.03
2018-08-11T07:08:30.195Z,17.06
2018-08-11T07:09:30.066Z,17.08
2018-08-11T07:10:30.165Z,17.03
2018-08-11T07:11:30.069Z,16.94
2018-08-11T07:12:30.141Z,17.05
2018-08-11T07:13:30.078Z,17.21
2018-08-11T07:14:30.076Z,17.31
2018-08-11T07:15:30.141Z,17.44
2018-08-11T07:16:30.111Z,17.42
2018-08-11T07:17:30.147Z,17.43
2018-08-11T07:18:30.075Z,17.55
2018-08-11T07:19:30.152Z,17.49
2018-08-11T07:20:30.072Z,17.40
2018-08-11T07:21:30.149Z,17.42
2018-08-11T07:22:30.095Z,17.42
2018-08-11T07:23:30.031Z,17.57
2018-08-11T07:24:30.079Z,17.53
2018-08-11T07:25:30.030Z,17.47
2018-08-11T07:26:30.197Z,17.28
2018-08-11T07:27:30.115Z,17.16
2018-08-11T07:28:30.115Z,17.29
2018-08-11T07:29:30.126Z,17.24
2018-08-11T07:30:30.033Z,17.14
2018-08-11T07:31:30.096Z,17.09
2018-08-11T07:32:30.032Z,17.10
2018-08-11T07:33:30.082Z,17.32
2018-08-11T07:34:30.142Z,17.51
2018-08-11T07:35:30.122Z,17.71
2018-08-11T07:36:30.199Z,17.79
2018-08-11T07:37:30.022Z,17.84
2018-08-11T07:38:30.126Z,17.72
2018-08-11T07:39:30.043Z,17.58
2018-08-11T07:40:30.082Z,17.75
2018-08-11T07:41:30.024Z,17.83
2018-08-11T07:42:30.063Z,17.75
2018-08-11T07:43:30.185Z,17.80
2018-08-11T07:44:30.075Z,17.98
2018-08-11T07:45:30.083Z,18.24
2018-08-11T07:46:30.109Z,18.41
2018-08-11T07:47:30.100Z,18.48
2018-08-11T07:48:30.149Z,18.48
2018-08-11T07:49:30.129Z,18.47
2018-08-11T07:50:30.108Z,18.59
2018-08-11T07:51:30.050Z,18.70
2018-08-11T07:52:30.139Z,18.77
2018-08-11T07:53:30.106Z,18.58
2018-08-11T07:54:30.115Z,18.52
2018-08-11T07:55:30.135Z,18.44
2018-08-11T07:56:30.121Z,18.34
2018-08-11T07:57:30.055Z,18.27
2018-08-11T07:58:30.138Z,18.21
2018-08-11T07:59:30.139Z,18.27
2018-08-11T08:00:30.040Z,18.35
2018-08-11T08:01:30.173Z,18.34
2018-08-11T08:02:30.107Z,18.50
2018-08-11T08:03:30.131Z,18.61
2018-08-11T08:04:30.158Z,18.64
2018-08-11T08:05:30.108Z,18.76
2018-08-11T08:06:30.144Z,18.99
2018-08-11T08:07:30.132Z,19.08
2018-08-11T08:08:30.163Z,19.15
2018-08-11T08:09:30.139Z,19.20
2018-08-11T08:10:30.146Z,18.98
2018-08-11T08:11:30.052Z,18.92
2018-08-11T08:12:30.080Z,18.81
2018-08-11T08:13:30.173Z,18.83
2018-08-11T08:14:30.095Z,18.88
2018-08-11T08:15:30.221Z,19.03
2018-08-11T08:16:30.151Z,19.21
2018-08-11T08:17:30.193Z,19.21
2018-08-11T08:18:30.113Z,19.08
2018-08-11T08:19:30.045Z,19.06
2018-08-11T08:20:30.075Z,19.28
2018-08-11T08:21:30.155Z,19.46
2018-08-11T08:22:30.144Z,19.55
2018-08-11T08:23:30.173Z,19.28
2018-08-11T08:24:30.144Z,19.10
2018-08-11T08:25:30.158Z,19.31
2018-08-11T08:26:30.289Z,19.01
2018-08-11T08:27:30.151Z,18.76
2018-08-11T08:28:30.096Z,18.58
2018-08-11T08:29:30.162Z,18.62
2018-08-11T08:30:30.084Z,18.59
2018-08-11T08:31:30.110Z,18.75
2018-08-11T08:32:30.142Z,18.91
2018-08-11T08:33:30.165Z,19.09
2018-08-11T08:34:30.108Z,19.19
2018-08-11T08:35:30.128Z,19.33
2018-08-11T08:36:30.178Z,19.42
2018-08-11T08:37:30.130Z,19.40
2018-08-11T08:38:30.154Z,19.21
2018-08-11T08:39:30.222Z,19.24
2018-08-11T08:40:30.072Z,19.13
2018-08-11T08:41:30.232Z,18.90
2018-08-11T08:42:30.148Z,18.83
2018-08-11T08:43:30.088Z,18.76
2018-08-11T08:44:30.063Z,18.75
2018-08-11T08:45:30.148Z,18.61
2018-08-11T08:46:30.153Z,18.65
2018-08-11T08:47:30.109Z,18.79
2018-08-11T08:48:30.056Z,18.95
2018-08-11T08:49:30.065Z,19.09
2018-08-11T08:50:30.065Z,19.01
2018-08-11T08:51:30.170Z,18.98
2018-08-11T08:52:30.121Z,18.81
2018-08-11T08:53:30.123Z,18.77
2018-08-11T08:54:30.070Z,18.86
2018-08-11T08:55:30.094Z,18.81
2018-08-11T08:56:30.105Z,18.99
2018-08-11T08:57:30.171Z,19.10
2018-08-11T08:58:30.100Z,19.16
2018-08-11T08:59:30.176Z,19.20
2018-08-11T09:00:30.109Z,19.09
2018-08-11T09:01:30.100Z,18.83
2018-08-11T09:02:30.144Z,18.69
2018-08-11T09:03:30.221Z,18.59
2018-08-11T09:04:30.147Z,18.44
2018-08-11T09:05:30.217Z,18.40
2018-08-11T09:06:30.134Z,18.36
2018-08-11T09:07:30.222Z,18.32
2018-08-11T09:08:30.148Z,18.28
2018-08-11T09:09:30.218Z,18.25
2018-08-11T09:10:30.156Z,18.21
2018-08-11T09:11:30.221Z,18.13
2018-08-11T09:12:30.067Z,18.06
2018-08-11T09:13:30.096Z,18.18
2018-08-11T09:14:30.122Z,18.43
2018-08-11T09:15:30.168Z,18.75
2018-08-11T09:16:30.174Z,18.92
2018-08-11T09:17:30.078Z,19.03
2018-08-11T09:18:30.170Z,19.16
2018-08-11T09:19:30.087Z,19.19
2018-08-11T09:20:30.083Z,19.38
2018-08-11T09:21:30.244Z,19.51
2018-08-11T09:22:30.230Z,19.61
2018-08-11T09:23:30.156Z,19.72
2018-08-11T09:24:30.232Z,19.73
2018-08-11T09:25:30.163Z,19.76
2018-08-11T09:26:30.233Z,19.80
2018-08-11T09:27:30.256Z,19.79
2018-08-11T09:28:30.162Z,19.90
2018-08-11T09:29:30.323Z,20.05
2018-08-11T09:30:30.237Z,19.90
2018-08-11T09:31:30.170Z,19.62
2018-08-11T09:32:30.096Z,19.42
2018-08-11T09:33:30.200Z,19.13
2018-08-11T09:34:30.217Z,19.12
2018-08-11T09:35:30.136Z,19.03
2018-08-11T09:36:30.136Z,19.13
2018-08-11T09:37:30.188Z,19.31
2018-08-11T09:38:30.156Z,19.47
2018-08-11T09:39:30.144Z,19.60
2018-08-11T09:40:30.244Z,19.87
2018-08-11T09:41:30.183Z,20.17
2018-08-11T09:42:30.177Z,20.23
2018-08-11T09:43:30.171Z,20.07
2018-08-11T09:44:30.177Z,19.81
2018-08-11T09:45:30.249Z,19.80
2018-08-11T09:46:30.179Z,19.55
2018-08-11T09:47:30.251Z,19.31
2018-08-11T09:48:30.177Z,19.44
2018-08-11T09:49:30.253Z,19.64
2018-08-11T09:50:30.320Z,19.96
2018-08-11T09:51:30.252Z,20.24
2018-08-11T09:52:30.208Z,20.38
2018-08-11T09:53:30.159Z,20.45
2018-08-11T09:54:30.120Z,20.54
2018-08-11T09:55:30.199Z,20.49
2018-08-11T09:56:30.115Z,20.56
2018-08-11T09:57:30.123Z,20.60
2018-08-11T09:58:30.199Z,20.65
2018-08-11T09:59:30.163Z,20.68
2018-08-11T10:00:30.212Z,20.61
2018-08-11T10:01:30.166Z,20.66
2018-08-11T10:02:30.200Z,20.76
2018-08-11T10:03:30.256Z,20.88
2018-08-11T10:04:30.230Z,20.58
2018-08-11T10:05:30.161Z,20.47
2018-08-11T10:06:30.162Z,20.60
2018-08-11T10:07:30.227Z,20.80
2018-08-11T10:08:30.121Z,20.98
2018-08-11T10:09:30.174Z,21.25
2018-08-11T10:10:30.273Z,21.29
2018-08-11T10:11:30.227Z,21.28
2018-08-11T10:12:30.198Z,21.10
2018-08-11T10:13:30.197Z,21.01
2018-08-11T10:14:30.272Z,21.08
2018-08-11T10:15:30.196Z,21.01
2018-08-11T10:16:30.272Z,21.10
2018-08-11T10:17:30.230Z,20.98
2018-08-11T10:18:30.218Z,20.99
2018-08-11T10:19:30.299Z,20.98
2018-08-11T10:20:30.201Z,21.05
2018-08-11T10:21:30.274Z,20.95
2018-08-11T10:22:30.143Z,20.95
2018-08-11T10:23:30.228Z,21.05
2018-08-11T10:24:30.232Z,21.18
2018-08-11T10:25:30.226Z,21.36
2018-08-11T10:26:30.143Z,21.56
2018-08-11T10:27:30.236Z,21.80
2018-08-11T10:28:30.177Z,21.90
2018-08-11T10:29:30.259Z,21.78
2018-08-11T10:30:30.234Z,21.68
2018-08-11T10:31:30.185Z,21.79
2018-08-11T10:32:30.213Z,21.84
2018-08-11T10:33:30.277Z,21.96
2018-08-11T10:34:30.222Z,22.04
2018-08-11T10:35:30.287Z,22.09
2018-08-11T10:36:30.210Z,22.10
2018-08-11T10:37:30.283Z,22.08
2018-08-11T10:38:30.220Z,21.89
2018-08-11T10:39:30.210Z,21.68
2018-08-11T10:40:30.283Z,21.35
2018-08-11T10:41:30.286Z,20.90
2018-08-11T10:42:30.215Z,20.73
2018-08-11T10:43:30.290Z,20.64
2018-08-11T10:44:30.220Z,20.49
2018-08-11T10:45:30.292Z,20.38
2018-08-11T10:46:30.218Z,20.24
2018-08-11T10:47:30.293Z,20.05
2018-08-11T10:48:30.228Z,20.07
2018-08-11T10:49:30.296Z,20.01
2018-08-11T10:50:30.225Z,20.02
2018-08-11T10:51:30.294Z,20.23
2018-08-11T10:52:30.218Z,20.54
2018-08-11T10:53:30.220Z,20.91
2018-08-11T10:54:30.295Z,21.20
2018-08-11T10:55:30.221Z,21.28
2018-08-11T10:56:30.226Z,21.32
2018-08-11T10:57:30.314Z,21.27
2018-08-11T10:58:30.298Z,21.43
2018-08-11T10:59:30.301Z,21.54
2018-08-11T11:00:30.213Z,21.56
2018-08-11T11:01:30.229Z,21.49
2018-08-11T11:02:30.227Z,21.45
2018-08-11T11:03:30.301Z,21.22
2018-08-11T11:04:30.257Z,20.97
2018-08-11T11:05:30.301Z,20.95
2018-08-11T11:06:30.229Z,21.09
2018-08-11T11:07:30.304Z,21.13
2018-08-11T11:08:30.273Z,21.29
2018-08-11T11:09:30.306Z,21.54
2018-08-11T11:10:30.237Z,21.62
2018-08-11T11:11:30.306Z,21.75
2018-08-11T11:12:30.270Z,22.10
2018-08-11T11:13:30.134Z,22.34
2018-08-11T11:14:30.220Z,22.45
2018-08-11T11:15:30.132Z,22.34
2018-08-11T11:16:30.129Z,22.38
2018-08-11T11:17:30.176Z,22.38
2018-08-11T11:18:30.221Z,22.41
2018-08-11T11:19:30.297Z,22.39
2018-08-11T11:20:30.179Z,22.35
2018-08-11T11:21:30.241Z,22.09
2018-08-11T11:22:30.140Z,21.79
2018-08-11T11:23:30.222Z,21.50
2018-08-11T11:24:30.258Z,21.38
2018-08-11T11:25:30.356Z,21.22
2018-08-11T11:26:30.200Z,21.21
2018-08-11T11:27:30.300Z,21.25
2018-08-11T11:28:30.231Z,21.27
2018-08-11T11:29:30.198Z,21.34
2018-08-11T11:30:30.282Z,21.38
2018-08-11T11:31:30.289Z,21.47
2018-08-11T11:32:30.265Z,21.62
2018-08-11T11:33:30.198Z,21.69
2018-08-11T11:34:30.323Z,21.83
2018-08-11T11:35:30.230Z,22.06
2018-08-11T11:36:30.325Z,22.14
2018-08-11T11:37:30.312Z,22.13
2018-08-11T11:38:30.205Z,22.38
2018-08-11T11:39:30.232Z,22.34
2018-08-11T11:40:30.229Z,22.49
2018-08-11T11:41:30.205Z,22.84
2018-08-11T11:42:30.231Z,23.12
2018-08-11T11:43:30.242Z,23.37
2018-08-11T11:44:30.298Z,23.19
2018-08-11T11:45:30.287Z,22.95
2018-08-11T11:46:30.202Z,22.76
2018-08-11T11:47:30.233Z,22.64
2018-08-11T11:48:30.201Z,22.52
2018-08-11T11:49:30.240Z,22.50
2018-08-11T11:50:30.316Z,22.46
2018-08-11T11:51:30.196Z,22.49
2018-08-11T11:52:30.277Z,22.63
2018-08-11T11:53:30.268Z,22.68
2018-08-11T11:54:30.273Z,22.72
2018-08-11T11:55:30.342Z,22.76
2018-08-11T11:56:30.279Z,22.79
2018-08-11T11:57:30.364Z,22.93
2018-08-11T11:58:30.275Z,22.76
2018-08-11T11:59:30.271Z,22.61
2018-08-11T12:00:30.345Z,22.39
2018-08-11T12:01:30.274Z,22.19
2018-08-11T12:02:30.347Z,22.20
2018-08-11T12:03:30.273Z,21.97
2018-08-11T12:04:30.274Z,21.76
2018-08-11T12:05:30.350Z,21.62
2018-08-11T12:06:30.273Z,21.67
2018-08-11T12:07:30.351Z,21.76
2018-08-11T12:08:30.276Z,21.79
2018-08-11T12:09:30.350Z,21.75
2018-08-11T12:10:30.277Z,21.61
2018-08-11T12:11:30.351Z,21.57
2018-08-11T12:12:30.352Z,21.68
2018-08-11T12:13:30.284Z,21.68
2018-08-11T12:14:30.313Z,21.61
2018-08-11T12:15:30.233Z,21.62
2018-08-11T12:16:30.314Z,21.53
2018-08-11T12:17:30.310Z,21.62
2018-08-11T12:18:30.190Z,21.73
2018-08-11T12:20:30.243Z,21.96
2018-08-11T12:21:30.260Z,21.98
2018-08-11T12:22:30.265Z,22.04
2018-08-11T12:23:30.291Z,21.93
2018-08-11T12:24:30.302Z,21.79
2018-08-11T12:25:30.191Z,21.60
2018-08-11T12:26:30.251Z,21.42
2018-08-11T12:27:30.301Z,21.28
2018-08-11T12:28:30.250Z,21.28
2018-08-11T12:29:30.197Z,21.43
2018-08-11T12:30:30.307Z,21.64
2018-08-11T12:31:30.318Z,21.96
2018-08-11T12:32:30.304Z,22.16
2018-08-11T12:33:30.263Z,22.14
2018-08-11T12:34:30.301Z,21.96
2018-08-11T12:35:30.204Z,21.68
2018-08-11T12:36:30.317Z,21.62
2018-08-11T12:37:30.274Z,21.56
2018-08-11T12:38:30.318Z,21.51
2018-08-11T12:39:30.328Z,21.42
2018-08-11T12:40:30.308Z,21.36
2018-08-11T12:41:30.335Z,21.27
2018-08-11T12:42:30.229Z,21.28
2018-08-11T12:43:30.375Z,21.27
2018-08-11T12:44:30.375Z,20.98
2018-08-11T12:45:30.396Z,21.01
2018-08-11T12:46:30.330Z,20.95
2018-08-11T12:47:30.383Z,20.91
2018-08-11T12:48:30.311Z,20.93
2018-08-11T12:49:30.381Z,20.98
2018-08-11T12:50:30.309Z,20.93
2018-08-11T12:51:30.379Z,20.91
2018-08-11T12:52:30.333Z,20.93
2018-08-11T12:53:30.422Z,20.98